Time;durP1;ratioP1;P1;durP2;ratioP2;P2;SDS_P1;SDS_P2;PMS_P1;PMS_P2;Temp;Humidity;BMP_temperature;BMP_pressure;BME280_temperature;BME280_humidity;BME280_pressure;Samples;Min_cycle;Max_cycle;Signal;HPM_P1;HPM_P2
2023/10/03 00:00:27;;;;;;;12.43;5.10;;;;;;;15.35;100.00;101021.13;6250105;28;20337;-72
2023/10/03 00:03:30;;;;;;;12.65;4.20;;;;;;;15.36;100.00;101012.25;6239159;28;20385;-72
2023/10/03 00:06:33;;;;;;;13.60;4.90;;;;;;;15.37;100.00;101017.41;6250142;28;20054;-72
2023/10/03 00:09:35;;;;;;;16.40;5.18;;;;;;;15.39;100.00;101006.72;6250087;28;20453;-72
2023/10/03 00:12:37;;;;;;;14.80;4.72;;;;;;;15.38;100.00;100991.78;6250098;28;20064;-72
2023/10/03 00:15:39;;;;;;;10.02;4.50;;;;;;;15.38;100.00;100986.50;6250209;28;20045;-72
2023/10/03 00:18:43;;;;;;;13.15;5.00;;;;;;;15.36;100.00;100977.81;6249915;28;20053;-72
2023/10/03 00:21:45;;;;;;;11.45;4.15;;;;;;;15.38;100.00;100971.44;6249824;28;20072;-72
2023/10/03 00:24:46;;;;;;;10.90;4.72;;;;;;;15.40;100.00;100969.56;6249912;28;20046;-72
2023/10/03 00:27:49;;;;;;;13.25;4.60;;;;;;;15.42;100.00;100969.44;6249717;28;20056;-72
2023/10/03 00:30:51;;;;;;;15.27;4.78;;;;;;;15.46;100.00;100965.63;6249602;28;20056;-72
2023/10/03 00:33:53;;;;;;;15.30;4.72;;;;;;;15.48;100.00;100953.94;6249787;28;20049;-71
2023/10/03 00:36:55;;;;;;;16.80;5.22;;;;;;;15.53;100.00;100953.63;6249904;28;20061;-72
2023/10/03 00:39:57;;;;;;;11.52;5.00;;;;;;;15.56;100.00;100934.88;6242968;28;20357;-72
2023/10/03 00:43:01;;;;;;;11.40;4.75;;;;;;;15.59;100.00;100928.53;6252459;28;20053;-72
2023/10/03 00:46:03;;;;;;;11.35;4.63;;;;;;;15.61;100.00;100923.94;6254042;28;20480;-72
2023/10/03 00:49:10;;;;;;;14.63;4.85;;;;;;;15.63;100.00;100914.94;6254275;28;20132;-72
2023/10/03 00:52:12;;;;;;;14.30;4.70;;;;;;;15.66;100.00;100911.25;6254235;28;20445;-72
2023/10/03 00:55:14;;;;;;;17.30;4.90;;;;;;;15.69;100.00;100908.38;6254379;28;20054;-72
2023/10/03 00:58:24;;;;;;;15.32;5.28;;;;;;;15.71;100.00;100895.84;6253968;28;20061;-72
2023/10/03 01:01:32;;;;;;;14.75;4.75;;;;;;;15.69;100.00;100882.72;6253539;28;20076;-73
2023/10/03 01:04:36;;;;;;;12.48;4.72;;;;;;;15.70;100.00;100879.13;6253777;28;20457;-73
2023/10/03 01:07:39;;;;;;;16.00;5.88;;;;;;;15.69;100.00;100874.78;6253464;28;20604;-72
2023/10/03 01:10:40;;;;;;;13.65;5.22;;;;;;;15.71;100.00;100875.53;6253404;28;20049;-71
2023/10/03 01:13:42;;;;;;;10.43;4.75;;;;;;;15.73;100.00;100867.47;6253663;28;20364;-73
2023/10/03 01:16:44;;;;;;;17.58;5.07;;;;;;;15.72;100.00;100866.63;6253521;28;20041;-71
2023/10/03 01:19:47;;;;;;;14.20;4.53;;;;;;;15.70;100.00;100863.22;6252824;28;20164;-72
2023/10/03 01:22:49;;;;;;;10.85;4.75;;;;;;;15.69;100.00;100850.09;6253340;28;20131;-71
2023/10/03 01:25:51;;;;;;;14.18;4.43;;;;;;;15.65;100.00;100853.91;6252782;28;20088;-71
2023/10/03 01:28:53;;;;;;;13.57;4.90;;;;;;;15.62;100.00;100843.50;6253056;28;20365;-73
2023/10/03 01:31:55;;;;;;;14.50;5.93;;;;;;;15.58;100.00;100842.91;6252903;28;20054;-71
2023/10/03 01:35:03;;;;;;;16.85;4.93;;;;;;;15.59;100.00;100835.78;6253262;28;20049;-73
2023/10/03 01:38:05;;;;;;;16.65;5.38;;;;;;;15.56;100.00;100828.91;6252731;28;20116;-71
2023/10/03 01:41:08;;;;;;;15.15;5.28;;;;;;;15.55;100.00;100815.78;6236901;28;20105;-72
2023/10/03 01:44:10;;;;;;;15.13;5.18;;;;;;;15.54;100.00;100827.34;6213536;28;20046;-72
2023/10/03 01:47:13;;;;;;;15.52;5.43;;;;;;;15.53;100.00;100815.88;6215820;28;20046;-71
2023/10/03 01:50:17;;;;;;;14.18;4.72;;;;;;;15.51;100.00;100815.16;6227857;28;20049;-71
2023/10/03 01:53:18;;;;;;;11.15;4.65;;;;;;;15.48;100.00;100813.56;6218567;28;20054;-72
2023/10/03 01:56:21;;;;;;;18.05;5.25;;;;;;;15.45;100.00;100805.03;6235899;28;20095;-72
2023/10/03 01:59:22;;;;;;;11.35;4.75;;;;;;;15.45;100.00;100791.78;6236247;28;20057;-71
2023/10/03 02:02:25;;;;;;;11.73;4.75;;;;;;;15.40;100.00;100781.53;6247749;28;20124;-72
2023/10/03 02:05:27;;;;;;;18.73;5.53;;;;;;;15.37;100.00;100765.84;6252137;28;20422;-71
2023/10/03 02:08:28;;;;;;;14.00;5.82;;;;;;;15.36;100.00;100750.06;6252463;28;20123;-72
2023/10/03 02:11:32;;;;;;;12.98;4.60;;;;;;;15.36;100.00;100755.38;6252218;28;20049;-71
2023/10/03 02:14:33;;;;;;;14.20;4.40;;;;;;;15.34;100.00;100750.16;6252517;28;20678;-71
2023/10/03 02:17:35;;;;;;;10.35;4.63;;;;;;;15.34;100.00;100744.03;6246082;28;20108;-72
2023/10/03 02:20:47;;;;;;;14.30;4.90;;;;;;;15.33;100.00;100737.91;6251854;28;20047;-71
2023/10/03 02:23:49;;;;;;;15.73;5.38;;;;;;;15.33;100.00;100721.16;6252035;28;20056;-72
2023/10/03 02:26:51;;;;;;;15.57;5.43;;;;;;;15.35;100.00;100713.94;6265747;22;20049;-77
2023/10/03 02:29:54;;;;;;;11.23;4.93;;;;;;;15.37;100.00;100714.69;6251330;28;20046;-77
2023/10/03 02:32:57;;;;;;;17.17;5.75;;;;;;;15.36;100.00;100703.25;6252373;28;20049;-77
2023/10/03 02:35:59;;;;;;;13.65;5.07;;;;;;;15.38;100.00;100689.88;6249034;28;20046;-77
2023/10/03 02:39:01;;;;;;;16.83;5.70;;;;;;;15.39;100.00;100673.88;6226282;28;20512;-77
2023/10/03 02:42:05;;;;;;;18.98;6.05;;;;;;;15.41;100.00;100663.19;6227134;28;20081;-77
2023/10/03 02:45:08;;;;;;;15.10;5.18;;;;;;;15.45;100.00;100654.91;6227225;28;20050;-77
2023/10/03 02:48:15;;;;;;;15.13;5.70;;;;;;;15.45;100.00;100643.47;6233725;28;20050;-77
2023/10/03 02:51:16;;;;;;;16.90;6.32;;;;;;;15.46;100.00;100643.34;6251162;28;20049;-77
2023/10/03 02:54:18;;;;;;;16.75;5.63;;;;;;;15.49;100.00;100623.75;6251678;28;20049;-77
2023/10/03 02:57:20;;;;;;;20.60;5.70;;;;;;;15.50;100.00;100619.28;6251355;28;20053;-77
2023/10/03 03:00:22;;;;;;;12.75;5.20;;;;;;;15.50;100.00;100612.19;6250954;28;20477;-77
2023/10/03 03:03:29;;;;;;;14.43;5.78;;;;;;;15.54;100.00;100595.09;6251294;28;20049;-77
2023/10/03 03:06:31;;;;;;;15.98;5.57;;;;;;;15.60;100.00;100599.06;6250108;28;20452;-77
2023/10/03 03:09:36;;;;;;;13.20;4.97;;;;;;;15.60;100.00;100591.13;6250845;28;20476;-77
2023/10/03 03:12:39;;;;;;;23.20;6.55;;;;;;;15.58;100.00;100590.38;6251250;28;20445;-77
2023/10/03 03:15:48;;;;;;;15.77;5.80;;;;;;;15.58;100.00;100591.25;6251136;28;20046;-77
2023/10/03 03:18:50;;;;;;;18.70;5.47;;;;;;;15.58;100.00;100593.91;6250961;28;20155;-77
2023/10/03 03:21:51;;;;;;;17.73;5.28;;;;;;;15.61;100.00;100598.94;6250944;28;20054;-77
2023/10/03 03:24:53;;;;;;;18.02;5.85;;;;;;;15.60;100.00;100599.06;6250907;28;20046;-77
2023/10/03 03:27:56;;;;;;;21.10;6.75;;;;;;;15.63;100.00;100580.31;6250760;28;20045;-77
2023/10/03 03:30:58;;;;;;;16.45;5.47;;;;;;;15.63;100.00;100569.69;6250624;28;20060;-77
2023/10/03 03:34:00;;;;;;;20.05;6.65;;;;;;;15.67;100.00;100569.38;6251073;28;20049;-77
2023/10/03 03:37:20;;;;;;;14.98;5.25;;;;;;;15.70;100.00;100547.09;6250567;28;20052;-77
2023/10/03 03:40:29;;;;;;;14.15;5.30;;;;;;;15.73;100.00;100533.59;6250438;28;20373;-77
2023/10/03 03:43:32;;;;;;;18.90;6.40;;;;;;;15.71;100.00;100527.56;6250698;28;20192;-77
2023/10/03 03:46:33;;;;;;;18.13;6.28;;;;;;;15.70;100.00;100518.78;6250593;28;20299;-77
2023/10/03 03:49:35;;;;;;;17.90;5.68;;;;;;;15.72;100.00;100526.63;6250279;28;20045;-75
2023/10/03 03:52:40;;;;;;;22.15;6.28;;;;;;;15.71;100.00;100519.63;6250715;28;20049;-76
2023/10/03 03:55:42;;;;;;;22.75;6.82;;;;;;;15.70;100.00;100513.47;6244171;28;20049;-76
2023/10/03 03:58:45;;;;;;;19.35;6.07;;;;;;;15.73;100.00;100507.94;6249042;28;20063;-76
2023/10/03 04:01:47;;;;;;;15.60;6.38;;;;;;;15.73;100.00;100504.47;6245233;28;20103;-76
2023/10/03 04:04:48;;;;;;;21.98;5.65;;;;;;;15.72;100.00;100494.84;6250383;28;20053;-76
2023/10/03 04:07:50;;;;;;;21.35;6.32;;;;;;;15.69;100.00;100482.66;6250228;28;20049;-76
2023/10/03 04:10:54;;;;;;;14.10;5.28;;;;;;;15.68;100.00;100488.09;6243517;28;20072;-76
2023/10/03 04:13:56;;;;;;;15.88;5.63;;;;;;;15.68;100.00;100477.50;6250245;28;20119;-75
2023/10/03 04:16:58;;;;;;;15.48;5.38;;;;;;;15.69;100.00;100469.41;6251231;28;20069;-76
2023/10/03 04:19:59;;;;;;;18.13;5.63;;;;;;;15.69;100.00;100453.53;6254731;28;20045;-76
2023/10/03 04:23:03;;;;;;;17.48;6.45;;;;;;;15.69;100.00;100447.38;6255083;28;20425;-75
2023/10/03 04:26:06;;;;;;;19.63;6.55;;;;;;;15.70;100.00;100449.91;6254841;28;20046;-75
2023/10/03 04:29:13;;;;;;;17.27;5.78;;;;;;;15.68;100.00;100438.59;6254880;28;20181;-76
2023/10/03 04:32:14;;;;;;;16.60;5.55;;;;;;;15.68;100.00;100435.94;6254905;28;20049;-76
2023/10/03 04:35:18;;;;;;;18.60;6.25;;;;;;;15.71;100.00;100424.25;6255006;28;20054;-75
2023/10/03 04:38:20;;;;;;;22.67;6.28;;;;;;;15.75;100.00;100424.84;6250126;28;20109;-76
2023/10/03 04:41:21;;;;;;;17.05;5.60;;;;;;;15.76;100.00;100413.28;6253831;28;20334;-76
2023/10/03 04:44:24;;;;;;;17.83;6.03;;;;;;;15.75;100.00;100406.31;6254475;28;20350;-75
2023/10/03 04:47:27;;;;;;;18.25;5.60;;;;;;;15.80;100.00;100412.06;6254454;28;20053;-76
2023/10/03 04:50:29;;;;;;;16.17;5.78;;;;;;;15.84;100.00;100398.44;6254031;28;20053;-76
2023/10/03 04:53:30;;;;;;;18.52;6.45;;;;;;;15.86;100.00;100393.88;6254295;28;20059;-76
2023/10/03 04:56:32;;;;;;;17.13;5.80;;;;;;;15.93;100.00;100402.16;6219723;28;20050;-76
2023/10/03 04:59:34;;;;;;;22.30;6.75;;;;;;;16.01;100.00;100407.69;6217289;28;20073;-75
2023/10/03 05:02:36;;;;;;;23.08;6.20;;;;;;;16.08;100.00;100400.94;6222206;28;20080;-75
2023/10/03 05:05:38;;;;;;;21.15;6.47;;;;;;;16.08;100.00;100411.53;6216399;28;20041;-76
2023/10/03 05:08:39;;;;;;;19.08;5.60;;;;;;;16.05;100.00;100411.78;6217083;28;20139;-76
2023/10/03 05:11:41;;;;;;;15.80;5.20;;;;;;;16.06;100.00;100402.84;6216302;28;20056;-76
2023/10/03 05:14:46;;;;;;;18.73;6.05;;;;;;;16.07;100.00;100419.59;6217518;28;20054;-76
2023/10/03 05:17:48;;;;;;;20.80;6.55;;;;;;;16.09;100.00;100412.38;6215145;28;20050;-76
2023/10/03 05:20:51;;;;;;;23.23;6.90;;;;;;;16.15;100.00;100422.47;6217326;28;20464;-76
2023/10/03 05:23:53;;;;;;;16.73;5.35;;;;;;;16.14;100.00;100412.84;6215912;28;20061;-77
2023/10/03 05:26:55;;;;;;;19.42;6.25;;;;;;;16.15;100.00;100428.59;6216663;28;20077;-78
2023/10/03 05:30:04;;;;;;;18.38;6.38;;;;;;;16.21;100.00;100421.94;6214796;28;20053;-76
2023/10/03 05:33:06;;;;;;;20.70;6.70;;;;;;;16.24;100.00;100427.00;6215100;28;20052;-75
2023/10/03 05:36:13;;;;;;;18.58;6.30;;;;;;;16.23;100.00;100417.38;6214751;28;20077;-75
2023/10/03 05:39:15;;;;;;;15.15;5.40;;;;;;;16.26;100.00;100414.50;6216101;28;20065;-75
2023/10/03 05:42:18;;;;;;;14.02;5.38;;;;;;;16.23;100.00;100412.91;6216317;28;20050;-75
2023/10/03 05:45:20;;;;;;;24.55;6.43;;;;;;;16.22;100.00;100411.25;6215234;28;20524;-75
2023/10/03 05:48:25;;;;;;;19.40;5.78;;;;;;;16.27;100.00;100408.22;6216792;28;20046;-75
2023/10/03 05:51:26;;;;;;;17.67;5.35;;;;;;;16.30;100.00;100415.06;6214567;28;20053;-75
2023/10/03 05:54:28;;;;;;;16.63;5.15;;;;;;;16.27;100.00;100421.47;6218199;28;20053;-75
2023/10/03 05:57:29;;;;;;;19.63;5.18;;;;;;;16.23;100.00;100420.88;6216631;28;20135;-75
2023/10/03 06:00:32;;;;;;;15.25;5.20;;;;;;;16.19;100.00;100426.56;6219193;28;20046;-75
2023/10/03 06:03:33;;;;;;;15.85;5.15;;;;;;;16.16;100.00;100427.63;6224355;28;20046;-76
2023/10/03 06:06:35;;;;;;;19.30;6.18;;;;;;;16.14;100.00;100434.03;6213941;28;20134;-76
2023/10/03 06:09:37;;;;;;;16.50;5.93;;;;;;;16.11;100.00;100424.53;6216360;28;20438;-75
2023/10/03 06:12:39;;;;;;;24.48;7.03;;;;;;;16.16;100.00;100432.94;6214456;28;20465;-76
2023/10/03 06:15:43;;;;;;;21.55;6.53;;;;;;;16.27;100.00;100428.59;6215596;28;20057;-76
2023/10/03 06:18:44;;;;;;;20.00;5.78;;;;;;;16.42;100.00;100432.63;6214692;28;20058;-76
2023/10/03 06:21:46;;;;;;;22.30;6.47;;;;;;;16.49;100.00;100424.03;6222691;28;20060;-76
2023/10/03 06:24:49;;;;;;;21.25;5.47;;;;;;;16.66;100.00;100421.75;6211041;28;20050;-76
2023/10/03 06:27:50;;;;;;;18.55;5.15;;;;;;;16.87;100.00;100424.47;6203047;28;20057;-76
2023/10/03 06:30:53;;;;;;;20.50;6.20;;;;;;;17.02;100.00;100420.47;6202919;28;20047;-76
2023/10/03 06:33:54;;;;;;;16.25;5.30;;;;;;;17.21;100.00;100423.25;6203469;28;20061;-76
2023/10/03 06:36:56;;;;;;;17.92;5.75;;;;;;;17.25;100.00;100416.69;6202929;28;20046;-76
2023/10/03 06:39:57;;;;;;;17.08;5.55;;;;;;;17.22;100.00;100419.63;6202703;28;20455;-76
2023/10/03 06:42:59;;;;;;;22.08;5.50;;;;;;;17.30;100.00;100415.44;6202839;28;20077;-76
2023/10/03 06:46:03;;;;;;;15.60;4.80;;;;;;;17.30;100.00;100415.44;6202932;28;20047;-76
2023/10/03 06:49:05;;;;;;;17.95;7.30;;;;;;;17.38;100.00;100419.13;6205753;28;20327;-76
2023/10/03 06:52:06;;;;;;;18.67;5.95;;;;;;;17.41;100.00;100434.81;6248659;28;20047;-76
2023/10/03 06:55:11;;;;;;;18.95;6.60;;;;;;;17.52;100.00;100430.38;6241855;28;20050;-76
2023/10/03 06:58:12;;;;;;;21.52;6.28;;;;;;;17.58;100.00;100429.84;6249393;28;20048;-76
2023/10/03 07:01:15;;;;;;;18.67;6.00;;;;;;;17.67;100.00;100434.34;6250986;28;20050;-76
2023/10/03 07:04:17;;;;;;;17.23;5.63;;;;;;;17.80;100.00;100442.09;6251484;28;20568;-76
2023/10/03 07:07:18;;;;;;;20.25;6.47;;;;;;;17.88;100.00;100444.91;6251142;28;20046;-76
2023/10/03 07:10:21;;;;;;;16.38;5.40;;;;;;;17.99;100.00;100458.94;6213615;28;20053;-76
2023/10/03 07:13:24;;;;;;;17.10;5.35;;;;;;;18.25;100.00;100461.06;6227959;28;20326;-76
2023/10/03 07:16:27;;;;;;;16.90;5.57;;;;;;;18.42;100.00;100463.06;6232953;28;20042;-76
2023/10/03 07:19:30;;;;;;;14.80;5.03;;;;;;;18.50;100.00;100465.03;6239807;28;20186;-76
2023/10/03 07:22:31;;;;;;;19.98;6.63;;;;;;;18.61;100.00;100467.53;6250920;28;20045;-76
2023/10/03 07:25:33;;;;;;;16.25;5.47;;;;;;;18.63;100.00;100460.28;6251127;28;20164;-76
2023/10/03 07:28:38;;;;;;;18.77;5.82;;;;;;;18.72;100.00;100456.78;6250419;28;20433;-75
2023/10/03 07:31:41;;;;;;;16.70;5.88;;;;;;;18.81;100.00;100449.78;6245161;28;20103;-76
2023/10/03 07:34:45;;;;;;;18.88;5.20;;;;;;;18.92;100.00;100465.59;6250509;28;20360;-76
2023/10/03 07:37:47;;;;;;;13.57;5.53;;;;;;;19.13;100.00;100477.91;6250874;28;20046;-76
2023/10/03 07:40:48;;;;;;;16.85;5.70;;;;;;;19.16;100.00;100470.44;6242681;28;20049;-76
2023/10/03 07:43:52;;;;;;;17.88;5.45;;;;;;;19.17;100.00;100480.13;6250708;28;20064;-76
2023/10/03 07:46:54;;;;;;;14.07;4.93;;;;;;;19.31;100.00;100473.50;6238734;28;20049;-75
2023/10/03 07:49:58;;;;;;;18.65;5.65;;;;;;;19.39;100.00;100480.75;6238901;28;20610;-75
2023/10/03 07:52:59;;;;;;;15.90;5.22;;;;;;;19.49;100.00;100479.75;6256060;28;20045;-76
2023/10/03 07:56:01;;;;;;;16.45;5.45;;;;;;;19.53;100.00;100488.31;6249055;28;20049;-75
2023/10/03 07:59:04;;;;;;;16.05;5.28;;;;;;;19.45;100.00;100493.50;6253703;28;20065;-75
2023/10/03 08:02:10;;;;;;;14.55;4.93;;;;;;;19.46;100.00;100519.19;6221782;28;20095;-76
2023/10/03 08:05:12;;;;;;;21.50;5.38;;;;;;;19.55;100.00;100518.31;6228054;28;20172;-77
2023/10/03 08:08:13;;;;;;;13.35;4.93;;;;;;;19.64;100.00;100509.47;6240696;28;20041;-80
2023/10/03 08:11:14;;;;;;;15.50;5.38;;;;;;;19.69;100.00;100498.38;6249938;28;20416;-82
2023/10/03 08:14:17;;;;;;;13.45;4.97;;;;;;;19.72;100.00;100527.41;6256669;28;20148;-80
2023/10/03 08:17:20;;;;;;;14.13;5.30;;;;;;;19.65;100.00;100515.63;6258347;28;20049;-81
2023/10/03 08:20:21;;;;;;;15.80;5.25;;;;;;;19.67;100.00;100521.69;6250548;28;20127;-81
2023/10/03 08:23:23;;;;;;;14.32;4.85;;;;;;;19.64;100.00;100530.78;6238550;28;20056;-80
2023/10/03 08:26:26;;;;;;;13.43;4.60;;;;;;;19.58;100.00;100535.84;6251378;23;20029;-72
2023/10/03 08:29:27;;;;;;;17.00;5.50;;;;;;;19.52;100.00;100531.91;6265136;28;20056;-72
2023/10/03 08:32:31;;;;;;;14.50;4.95;;;;;;;19.50;100.00;100544.56;6242353;28;20076;-72
2023/10/03 08:35:35;;;;;;;17.60;5.40;;;;;;;19.45;100.00;100545.00;6251388;28;20116;-71
2023/10/03 08:38:43;;;;;;;10.70;4.72;;;;;;;19.47;100.00;100544.84;6256651;28;20037;-71
2023/10/03 08:41:47;;;;;;;12.90;4.65;;;;;;;19.52;100.00;100539.91;6251655;28;20045;-74
2023/10/03 08:44:52;;;;;;;14.48;4.90;;;;;;;19.58;100.00;100538.50;6252081;28;20052;-73
2023/10/03 08:47:55;;;;;;;12.80;4.35;;;;;;;19.61;100.00;100539.06;6257677;28;20409;-72
2023/10/03 08:50:58;;;;;;;15.13;5.00;;;;;;;19.71;100.00;100552.38;6256571;28;20397;-72
2023/10/03 08:54:08;;;;;;;13.13;4.70;;;;;;;19.66;100.00;100550.13;6257676;28;20052;-71
2023/10/03 08:57:10;;;;;;;15.77;4.57;;;;;;;19.65;100.00;100548.47;6257763;28;20417;-71
2023/10/03 09:00:12;;;;;;;8.55;2.80;;;;;;;19.61;100.00;100559.56;6255206;28;20179;-72
2023/10/03 09:03:17;;;;;;;8.13;2.47;;;;;;;19.61;100.00;100556.91;6254820;28;20148;-72
2023/10/03 09:06:23;;;;;;;8.02;2.45;;;;;;;19.56;100.00;100564.47;6252476;28;20041;-72
2023/10/03 09:09:25;;;;;;;5.40;2.35;;;;;;;19.58;100.00;100571.34;6247725;28;20046;-72
2023/10/03 09:12:26;;;;;;;4.90;2.00;;;;;;;19.59;100.00;100561.50;6240525;28;20350;-72
2023/10/03 09:15:28;;;;;;;3.92;1.73;;;;;;;19.77;100.00;100575.81;6245532;28;20049;-72
2023/10/03 09:18:40;;;;;;;4.30;1.55;;;;;;;19.91;100.00;100569.16;6244456;28;20046;-71
2023/10/03 09:21:41;;;;;;;4.97;1.77;;;;;;;20.06;100.00;100567.69;6247047;28;20053;-71
2023/10/03 09:24:44;;;;;;;3.17;1.35;;;;;;;20.05;100.00;100576.69;6253385;28;20049;-73
2023/10/03 09:27:45;;;;;;;2.53;1.27;;;;;;;20.11;100.00;100585.91;6244282;28;20046;-71
2023/10/03 09:30:47;;;;;;;6.03;1.95;;;;;;;20.15;100.00;100561.47;6239974;28;20060;-71
2023/10/03 09:33:50;;;;;;;8.90;1.73;;;;;;;20.24;100.00;100571.25;6238689;28;20050;-73
2023/10/03 09:36:51;;;;;;;2.83;1.35;;;;;;;20.42;100.00;100575.78;6250857;28;20049;-72
2023/10/03 09:39:57;;;;;;;2.42;1.10;;;;;;;20.49;100.00;100580.41;6248335;28;20056;-72
2023/10/03 09:42:59;;;;;;;4.82;1.35;;;;;;;20.42;100.00;100586.47;6249184;28;20060;-72
2023/10/03 09:46:01;;;;;;;6.38;1.98;;;;;;;20.37;100.00;100584.25;6251220;28;20460;-72
2023/10/03 09:49:08;;;;;;;2.97;1.45;;;;;;;20.21;100.00;100579.56;6243255;28;20327;-71
2023/10/03 09:52:17;;;;;;;2.00;1.15;;;;;;;20.13;100.00;100598.13;6245142;28;20049;-72
2023/10/03 09:55:22;;;;;;;2.70;1.25;;;;;;;20.09;100.00;100599.41;6251373;28;20084;-72
2023/10/03 09:58:25;;;;;;;5.40;1.60;;;;;;;19.97;100.00;100604.06;6248744;28;20044;-72
2023/10/03 10:01:30;;;;;;;5.72;2.05;;;;;;;20.05;100.00;100613.19;6244926;28;20049;-73
2023/10/03 10:04:35;;;;;;;1.70;1.55;;;;;;;19.98;100.00;100603.13;6240229;28;20049;-71
2023/10/03 10:07:50;;;;;;;3.50;1.42;;;;;;;19.92;100.00;100609.00;6249623;28;20445;-72
2023/10/03 10:11:07;;;;;;;2.42;1.25;;;;;;;19.81;100.00;100630.53;6248858;28;20045;-71
2023/10/03 10:14:09;;;;;;;2.55;1.25;;;;;;;19.86;100.00;100636.28;6251945;28;20496;-73
2023/10/03 10:17:19;;;;;;;3.67;1.60;;;;;;;19.81;100.00;100617.19;6249656;28;20037;-73
2023/10/03 10:20:32;;;;;;;4.28;1.40;;;;;;;19.84;100.00;100629.38;6250073;28;20072;-73
2023/10/03 10:23:35;;;;;;;3.70;1.38;;;;;;;19.86;100.00;100643.44;6249973;28;20124;-71
2023/10/03 10:26:36;;;;;;;2.95;1.55;;;;;;;19.88;100.00;100628.97;6247693;28;20071;-71
2023/10/03 10:29:57;;;;;;;5.03;2.38;;;;;;;19.84;100.00;100634.72;6246124;28;20053;-73
2023/10/03 10:33:25;;;;;;;3.90;1.42;;;;;;;19.72;100.00;100637.56;6245125;28;20052;-71
2023/10/03 10:36:55;;;;;;;5.07;2.13;;;;;;;19.71;100.00;100635.03;6251736;28;20118;-72
2023/10/03 10:43:24;;;;;;;8.38;2.10;;;;;;;19.74;100.00;100632.91;6225342;28;20049;-72
2023/10/03 10:46:32;;;;;;;4.40;1.60;;;;;;;19.76;100.00;100633.63;6234411;28;20061;-73
2023/10/03 10:49:56;;;;;;;5.00;1.83;;;;;;;19.70;100.00;100617.34;6238892;28;20548;-74
2023/10/03 10:53:02;;;;;;;3.00;1.60;;;;;;;19.71;100.00;100627.91;6246487;28;20052;-73
2023/10/03 10:56:07;;;;;;;4.25;1.73;;;;;;;19.74;100.00;100643.59;6251137;28;20052;-72
2023/10/03 10:59:10;;;;;;;5.15;1.75;;;;;;;19.69;100.00;100651.19;6251424;28;20045;-74
2023/10/03 11:02:16;;;;;;;4.40;1.55;;;;;;;19.70;100.00;100665.34;6251440;28;20125;-74
2023/10/03 11:05:18;;;;;;;6.35;1.88;;;;;;;19.55;100.00;100667.59;6248444;28;20053;-73
2023/10/03 11:08:21;;;;;;;3.00;1.83;;;;;;;19.55;100.00;100672.91;6250966;28;20045;-73
2023/10/03 11:11:34;;;;;;;4.32;1.52;;;;;;;19.56;100.00;100663.09;6243787;28;20437;-73
2023/10/03 11:14:36;;;;;;;2.58;1.70;;;;;;;19.53;100.00;100672.22;6239263;28;20049;-73
2023/10/03 11:17:38;;;;;;;6.20;2.40;;;;;;;19.54;100.00;100668.56;6231622;28;20057;-74
2023/10/03 11:20:40;;;;;;;8.63;2.53;;;;;;;19.50;100.00;100661.84;6236940;28;20131;-74
2023/10/03 11:24:15;;;;;;;6.00;1.77;;;;;;;19.52;100.00;100659.88;6245930;28;20530;-73
2023/10/03 11:27:24;;;;;;;4.10;2.55;;;;;;;19.49;100.00;100652.19;6243365;28;20052;-74
2023/10/03 11:30:25;;;;;;;3.75;2.08;;;;;;;19.43;100.00;100653.56;6245162;28;20049;-73
2023/10/03 11:33:27;;;;;;;4.07;2.03;;;;;;;19.46;100.00;100669.28;6243714;28;20397;-74
2023/10/03 11:36:40;;;;;;;4.07;1.98;;;;;;;19.38;100.00;100653.13;6244974;28;20056;-74
2023/10/03 11:39:43;;;;;;;3.70;2.10;;;;;;;19.31;100.00;100649.38;6240227;28;20053;-74
2023/10/03 11:42:50;;;;;;;2.25;1.42;;;;;;;19.15;100.00;100689.03;6248895;28;20172;-74
2023/10/03 11:45:55;;;;;;;4.38;1.27;;;;;;;18.29;100.00;100703.75;6246324;28;20057;-73
2023/10/03 11:48:57;;;;;;;1.67;1.02;;;;;;;17.87;100.00;100706.44;6249967;28;20042;-71
2023/10/03 11:51:58;;;;;;;3.38;1.60;;;;;;;17.64;100.00;100697.72;6245846;28;20124;-72
2023/10/03 11:55:02;;;;;;;2.40;1.33;;;;;;;17.35;100.00;100716.06;6250443;28;20049;-71
2023/10/03 11:58:05;;;;;;;5.72;1.77;;;;;;;17.28;100.00;100709.56;6247290;28;20050;-71
2023/10/03 12:01:08;;;;;;;2.85;1.23;;;;;;;17.23;100.00;100726.72;6243702;28;20434;-70
2023/10/03 12:04:09;;;;;;;3.55;1.08;;;;;;;17.20;100.00;100748.22;6243153;28;20460;-70
2023/10/03 12:07:11;;;;;;;2.88;0.98;;;;;;;17.24;100.00;100739.03;6250034;28;20052;-71
2023/10/03 12:10:14;;;;;;;4.72;1.30;;;;;;;17.34;100.00;100749.75;6246754;28;20046;-71
2023/10/03 12:13:16;;;;;;;5.55;1.58;;;;;;;17.25;100.00;100753.16;6246557;28;20041;-69
2023/10/03 12:16:18;;;;;;;3.13;1.17;;;;;;;17.23;100.00;100769.22;6244265;28;20051;-70
2023/10/03 12:19:19;;;;;;;1.90;1.30;;;;;;;17.29;100.00;100761.72;6247203;28;20362;-70
2023/10/03 12:22:21;;;;;;;4.80;1.20;;;;;;;17.47;100.00;100766.38;6248879;28;20045;-70
2023/10/03 12:25:27;;;;;;;2.28;1.10;;;;;;;17.38;100.00;100779.56;6241424;28;20048;-70
2023/10/03 12:28:28;;;;;;;3.78;1.30;;;;;;;17.36;100.00;100787.69;6244752;28;20141;-71
2023/10/03 12:31:30;;;;;;;1.20;0.50;;;;;;;17.13;100.00;100784.22;6248540;28;20050;-70
2023/10/03 12:34:32;;;;;;;1.55;0.70;;;;;;;17.07;100.00;100792.66;6249992;28;20087;-71
2023/10/03 12:37:34;;;;;;;0.68;0.40;;;;;;;16.72;100.00;100795.47;6249940;28;20354;-69
2023/10/03 12:40:37;;;;;;;0.93;0.38;;;;;;;16.81;100.00;100799.22;6254327;28;20061;-70
2023/10/03 12:43:46;;;;;;;0.30;0.30;;;;;;;16.28;100.00;100805.00;6254780;28;20051;-69
2023/10/03 12:46:49;;;;;;;1.70;0.40;;;;;;;16.35;100.00;100830.13;6254103;28;20349;-71
2023/10/03 12:49:50;;;;;;;1.52;0.63;;;;;;;16.05;100.00;100829.78;6246357;28;20111;-71
2023/10/03 12:52:52;;;;;;;1.13;0.50;;;;;;;15.98;100.00;100837.31;6254235;28;20053;-70
2023/10/03 12:55:56;;;;;;;0.30;0.30;;;;;;;16.06;100.00;100834.13;6250228;28;20049;-69
2023/10/03 12:58:58;;;;;;;2.10;0.50;;;;;;;16.08;100.00;100834.84;6254042;28;20441;-70
2023/10/03 13:01:59;;;;;;;1.85;0.47;;;;;;;16.00;100.00;100839.88;6258837;28;20049;-70
2023/10/03 13:05:05;;;;;;;5.10;0.80;;;;;;;16.14;100.00;100851.13;6247931;28;20053;-70
2023/10/03 13:08:08;;;;;;;1.42;0.60;;;;;;;16.25;100.00;100866.22;6251783;28;20046;-70
2023/10/03 13:11:13;;;;;;;4.43;1.00;;;;;;;16.14;100.00;100869.69;6253524;28;20052;-70
2023/10/03 13:14:14;;;;;;;2.63;0.63;;;;;;;16.21;100.00;100878.91;6253663;28;20358;-70
2023/10/03 13:17:16;;;;;;;0.98;0.77;;;;;;;16.11;100.00;100884.97;6254032;28;20053;-69
2023/10/03 13:20:18;;;;;;;1.45;0.98;;;;;;;16.20;100.00;100863.94;6253380;28;20064;-71
2023/10/03 13:23:20;;;;;;;2.38;0.80;;;;;;;16.29;100.00;100878.31;6251386;28;20101;-70
2023/10/03 13:26:23;;;;;;;4.10;1.00;;;;;;;16.18;100.00;100886.22;6253131;28;20334;-70
2023/10/03 13:29:24;;;;;;;1.25;0.65;;;;;;;16.19;100.00;100911.78;6253198;28;20046;-70
2023/10/03 13:32:25;;;;;;;1.80;0.65;;;;;;;16.21;100.00;100923.97;6249056;28;20048;-70
2023/10/03 13:35:27;;;;;;;3.88;0.93;;;;;;;16.05;100.00;100952.56;6246723;28;20049;-70
2023/10/03 13:38:29;;;;;;;1.77;0.50;;;;;;;16.05;100.00;100933.16;6248653;28;20048;-71
2023/10/03 13:41:32;;;;;;;3.60;0.70;;;;;;;16.13;100.00;100906.94;6251200;28;20603;-70
2023/10/03 13:44:33;;;;;;;1.67;0.70;;;;;;;16.19;100.00;100925.88;6245644;28;20048;-69
2023/10/03 13:47:34;;;;;;;3.80;0.50;;;;;;;16.00;100.00;100959.16;6242089;28;20049;-70
2023/10/03 13:50:36;;;;;;;1.10;0.68;;;;;;;16.26;100.00;100958.13;6266295;28;20120;-71
2023/10/03 13:53:39;;;;;;;0.82;0.40;;;;;;;16.08;100.00;100962.97;6260197;28;20076;-69
2023/10/03 13:56:42;;;;;;;0.75;0.20;;;;;;;16.14;100.00;100951.06;6253012;28;20056;-71
2023/10/03 13:59:44;;;;;;;0.73;0.30;;;;;;;16.05;100.00;100952.56;6258116;28;20045;-70